Time;durP1;ratioP1;P1;durP2;ratioP2;P2;SDS_P1;SDS_P2;PMS_P1;PMS_P2;Temp;Humidity;BMP_temperature;BMP_pressure;BME280_temperature;BME280_humidity;BME280_pressure;Samples;Min_cycle;Max_cycle;Signal;HPM_P1;HPM_P2
2022/02/14 00:01:28;;;;;;;;;;;21.80;30.50;;;;;;5047294;28;19904;-47
2022/02/14 00:03:54;;;;;;;;;;;21.80;30.50;;;;;;5034765;28;19904;-45
2022/02/14 00:06:19;;;;;;;;;;;21.80;30.50;;;;;;5035934;28;20007;-47
2022/02/14 00:08:45;;;;;;;;;;;21.80;30.50;;;;;;5051826;28;20298;-47
2022/02/14 00:11:11;;;;;;;;;;;21.80;30.50;;;;;;5052386;28;20263;-46
2022/02/14 00:13:37;;;;;;;;;;;21.80;30.50;;;;;;5043585;28;19904;-48
2022/02/14 00:16:02;;;;;;;;;;;21.80;30.50;;;;;;5034552;28;19916;-44
2022/02/14 00:18:28;;;;;;;;;;;21.80;30.50;;;;;;5041067;28;19952;-45
2022/02/14 00:20:54;;;;;;;;;;;21.80;30.50;;;;;;5043220;28;19928;-46
2022/02/14 00:23:20;;;;;;;;;;;21.80;30.50;;;;;;5045217;28;19905;-46
2022/02/14 00:25:46;;;;;;;;;;;21.70;30.50;;;;;;5046366;28;19905;-47
2022/02/14 00:28:12;;;;;;;;;;;21.80;30.60;;;;;;5021328;28;20220;-46
2022/02/14 00:30:38;;;;;;;;;;;21.80;30.50;;;;;;5049324;28;20027;-46
2022/02/14 00:33:03;;;;;;;;;;;21.70;30.50;;;;;;5047634;28;19980;-48
2022/02/14 00:35:29;;;;;;;;;;;21.70;30.50;;;;;;5036921;28;19909;-45
2022/02/14 00:37:54;;;;;;;;;;;21.70;30.50;;;;;;5038059;28;20174;-50
2022/02/14 00:40:20;;;;;;;;;;;21.80;30.60;;;;;;5046230;28;20025;-47
2022/02/14 00:42:46;;;;;;;;;;;21.70;30.50;;;;;;5046791;28;19905;-47
2022/02/14 00:45:12;;;;;;;;;;;21.70;30.60;;;;;;5049037;28;19915;-46
2022/02/14 00:47:37;;;;;;;;;;;21.70;30.60;;;;;;5050929;28;19951;-47
2022/02/14 00:50:04;;;;;;;;;;;21.70;30.60;;;;;;5038137;28;19963;-45
2022/02/14 00:52:29;;;;;;;;;;;21.70;30.60;;;;;;5046563;28;19959;-45
2022/02/14 00:54:58;;;;;;;;;;;21.70;30.60;;;;;;5052187;28;20275;-47
2022/02/14 00:57:27;;;;;;;;;;;21.60;30.60;;;;;;5040959;28;19921;-47
2022/02/14 00:59:53;;;;;;;;;;;21.70;30.60;;;;;;5043120;28;19982;-47
2022/02/14 01:02:18;;;;;;;;;;;21.70;30.70;;;;;;5044237;28;20336;-54
2022/02/14 01:04:44;;;;;;;;;;;21.70;30.60;;;;;;5055533;28;20612;-49
2022/02/14 01:07:10;;;;;;;;;;;21.60;30.60;;;;;;5052447;28;19959;-45
2022/02/14 01:09:36;;;;;;;;;;;21.70;30.70;;;;;;5044310;28;19904;-45
2022/02/14 01:12:02;;;;;;;;;;;21.70;30.70;;;;;;5053607;28;19948;-48
2022/02/14 01:14:28;;;;;;;;;;;21.60;30.70;;;;;;5040850;28;19948;-49
2022/02/14 01:16:57;;;;;;;;;;;21.60;30.70;;;;;;5042390;28;19959;-46
2022/02/14 01:19:23;;;;;;;;;;;21.60;30.70;;;;;;5046137;28;19905;-45
2022/02/14 01:21:49;;;;;;;;;;;21.60;30.70;;;;;;5038353;28;19905;-47
2022/02/14 01:24:14;;;;;;;;;;;21.60;30.70;;;;;;5044103;28;19915;-47
2022/02/14 01:26:42;;;;;;;;;;;21.60;30.70;;;;;;5056825;28;19911;-48
2022/02/14 01:29:08;;;;;;;;;;;21.60;30.80;;;;;;5044951;28;19915;-50
2022/02/14 01:31:33;;;;;;;;;;;21.60;31.40;;;;;;5051051;28;19924;-44
2022/02/14 01:33:59;;;;;;;;;;;21.50;30.70;;;;;;5047039;28;19908;-49
2022/02/14 01:36:25;;;;;;;;;;;21.60;30.90;;;;;;5037560;28;20380;-50
2022/02/14 01:38:51;;;;;;;;;;;21.50;30.90;;;;;;5042614;28;19916;-46
2022/02/14 01:41:17;;;;;;;;;;;21.60;30.90;;;;;;5045404;28;19968;-48
2022/02/14 01:43:43;;;;;;;;;;;21.50;30.90;;;;;;5046983;28;19905;-48
2022/02/14 01:46:09;;;;;;;;;;;21.50;30.90;;;;;;5039568;28;20367;-49
2022/02/14 01:48:35;;;;;;;;;;;21.50;30.90;;;;;;5049326;28;19934;-52
2022/02/14 01:51:01;;;;;;;;;;;21.50;31.00;;;;;;5041283;28;19958;-52
2022/02/14 01:53:27;;;;;;;;;;;21.50;31.00;;;;;;5050334;28;20329;-53
2022/02/14 01:55:53;;;;;;;;;;;21.50;31.00;;;;;;5036689;28;19912;-48
2022/02/14 01:58:19;;;;;;;;;;;21.50;31.00;;;;;;5048198;28;19904;-50
2022/02/14 02:00:45;;;;;;;;;;;21.50;31.00;;;;;;5042672;28;20027;-51
2022/02/14 02:03:11;;;;;;;;;;;21.50;31.00;;;;;;5038147;28;20367;-51
2022/02/14 02:05:36;;;;;;;;;;;21.50;31.00;;;;;;5050816;28;19915;-50
2022/02/14 02:08:02;;;;;;;;;;;21.50;31.10;;;;;;5052709;28;20378;-49
2022/02/14 02:10:28;;;;;;;;;;;21.50;31.10;;;;;;5044043;28;19920;-51
2022/02/14 02:12:55;;;;;;;;;;;21.40;31.00;;;;;;5037136;28;19972;-45
2022/02/14 02:15:21;;;;;;;;;;;21.50;31.10;;;;;;5043689;28;19915;-49
2022/02/14 02:17:47;;;;;;;;;;;21.50;31.10;;;;;;5037558;28;19904;-48
2022/02/14 02:20:14;;;;;;;;;;;21.40;31.10;;;;;;5049947;28;19917;-49
2022/02/14 02:22:41;;;;;;;;;;;21.50;31.10;;;;;;5021062;28;20359;-49
2022/02/14 02:25:06;;;;;;;;;;;21.40;31.10;;;;;;5029330;28;20290;-48
2022/02/14 02:27:32;;;;;;;;;;;21.50;31.10;;;;;;5046036;28;19939;-47
2022/02/14 02:29:59;;;;;;;;;;;21.40;31.10;;;;;;5052169;28;19920;-46
2022/02/14 02:32:28;;;;;;;;;;;21.40;31.10;;;;;;5056802;28;19908;-50
2022/02/14 02:34:53;;;;;;;;;;;21.40;31.20;;;;;;5037028;28;19905;-46
2022/02/14 02:37:19;;;;;;;;;;;21.40;31.20;;;;;;5039732;28;19969;-53
2022/02/14 02:39:45;;;;;;;;;;;21.40;31.20;;;;;;5046260;28;19916;-48
2022/02/14 02:42:12;;;;;;;;;;;21.40;31.20;;;;;;5042316;28;19904;-46
2022/02/14 02:44:38;;;;;;;;;;;21.40;31.20;;;;;;5052728;28;19995;-45
2022/02/14 02:47:06;;;;;;;;;;;21.40;31.20;;;;;;5052288;28;20054;-51
2022/02/14 02:49:32;;;;;;;;;;;21.40;31.20;;;;;;5047505;28;19904;-52
2022/02/14 02:51:57;;;;;;;;;;;21.40;31.30;;;;;;5044307;28;19919;-53
2022/02/14 02:54:24;;;;;;;;;;;21.40;31.30;;;;;;5040022;28;19905;-49
2022/02/14 02:56:50;;;;;;;;;;;21.40;31.30;;;;;;5037092;28;19909;-52
2022/02/14 02:59:16;;;;;;;;;;;21.40;31.30;;;;;;5048245;28;19912;-53
2022/02/14 03:01:42;;;;;;;;;;;21.40;31.30;;;;;;5047904;28;19916;-49
2022/02/14 03:04:09;;;;;;;;;;;21.40;31.30;;;;;;5046089;28;19904;-47
2022/02/14 03:06:35;;;;;;;;;;;21.30;31.30;;;;;;5042037;28;19905;-50
2022/02/14 03:09:01;;;;;;;;;;;21.30;31.30;;;;;;5045771;28;19904;-48
2022/02/14 03:11:27;;;;;;;;;;;21.30;31.30;;;;;;5039361;28;19948;-51
2022/02/14 03:13:53;;;;;;;;;;;21.30;31.30;;;;;;5041350;28;19905;-49
2022/02/14 03:16:19;;;;;;;;;;;21.30;31.40;;;;;;5048202;28;20026;-46
2022/02/14 03:18:45;;;;;;;;;;;21.30;31.40;;;;;;5042335;28;20348;-48
2022/02/14 03:21:11;;;;;;;;;;;21.30;31.40;;;;;;5043981;28;19952;-49
2022/02/14 03:23:37;;;;;;;;;;;21.30;31.40;;;;;;5044488;28;20316;-46
2022/02/14 03:26:03;;;;;;;;;;;21.30;31.40;;;;;;5044347;28;19915;-48
2022/02/14 03:28:29;;;;;;;;;;;21.30;31.40;;;;;;5045520;28;19910;-48
2022/02/14 03:30:55;;;;;;;;;;;21.30;31.40;;;;;;5039098;28;20024;-50
2022/02/14 03:33:20;;;;;;;;;;;21.30;31.40;;;;;;5037389;28;20343;-47
2022/02/14 03:35:46;;;;;;;;;;;21.30;31.40;;;;;;5035158;28;20055;-47
2022/02/14 03:38:12;;;;;;;;;;;21.30;31.50;;;;;;5036779;28;20277;-50
2022/02/14 03:40:38;;;;;;;;;;;21.30;31.50;;;;;;5042679;28;19920;-48
2022/02/14 03:43:06;;;;;;;;;;;21.30;31.50;;;;;;5043318;28;19916;-50
2022/02/14 03:45:32;;;;;;;;;;;21.30;31.50;;;;;;5050884;28;19953;-49
2022/02/14 03:47:58;;;;;;;;;;;21.30;31.50;;;;;;5050750;28;19947;-46
2022/02/14 03:50:24;;;;;;;;;;;21.30;31.50;;;;;;5062010;28;19966;-49
2022/02/14 03:52:49;;;;;;;;;;;21.30;31.50;;;;;;5046421;28;19908;-47
2022/02/14 03:55:15;;;;;;;;;;;21.30;31.60;;;;;;5048990;28;19916;-47
2022/02/14 03:57:42;;;;;;;;;;;21.30;31.60;;;;;;5052224;28;19915;-47
2022/02/14 04:00:09;;;;;;;;;;;21.30;31.60;;;;;;5038362;28;20198;-50
2022/02/14 04:02:37;;;;;;;;;;;21.30;31.60;;;;;;5035571;28;20273;-52
2022/02/14 04:05:03;;;;;;;;;;;21.30;31.70;;;;;;5043811;28;20015;-46
2022/02/14 04:07:30;;;;;;;;;;;21.30;31.70;;;;;;5052199;28;19921;-50
2022/02/14 04:09:56;;;;;;;;;;;21.30;31.70;;;;;;5047334;28;19982;-46
2022/02/14 04:12:22;;;;;;;;;;;21.20;31.70;;;;;;5048219;28;19963;-45
2022/02/14 04:14:47;;;;;;;;;;;21.20;31.70;;;;;;5042788;28;20308;-46
2022/02/14 04:17:13;;;;;;;;;;;21.20;31.60;;;;;;5050282;28;19960;-47
2022/02/14 04:19:39;;;;;;;;;;;21.20;31.60;;;;;;5047559;28;19912;-47
2022/02/14 04:22:05;;;;;;;;;;;21.20;31.70;;;;;;5049404;28;19940;-49
2022/02/14 04:24:31;;;;;;;;;;;21.20;31.70;;;;;;5040524;28;20197;-46
2022/02/14 04:26:56;;;;;;;;;;;21.20;31.70;;;;;;5035664;28;20030;-50
2022/02/14 04:29:22;;;;;;;;;;;21.20;31.70;;;;;;5042834;28;20219;-45
2022/02/14 04:31:48;;;;;;;;;;;21.20;31.70;;;;;;5040396;28;20019;-46
2022/02/14 04:34:16;;;;;;;;;;;21.20;31.70;;;;;;5045173;28;19917;-46
2022/02/14 04:36:41;;;;;;;;;;;21.20;31.70;;;;;;5038589;28;20362;-48
2022/02/14 04:39:08;;;;;;;;;;;21.20;31.70;;;;;;5038466;28;19905;-49
2022/02/14 04:41:34;;;;;;;;;;;21.20;31.70;;;;;;5054129;28;19905;-47
2022/02/14 04:44:00;;;;;;;;;;;21.20;31.70;;;;;;5054224;28;20350;-51
2022/02/14 04:46:25;;;;;;;;;;;21.20;31.80;;;;;;5039118;28;20063;-45
2022/02/14 04:48:52;;;;;;;;;;;21.20;31.80;;;;;;5052069;28;19905;-46
2022/02/14 04:51:18;;;;;;;;;;;21.20;31.80;;;;;;5045783;28;20011;-51
2022/02/14 04:53:44;;;;;;;;;;;21.20;31.80;;;;;;5031881;28;19999;-45
2022/02/14 04:56:09;;;;;;;;;;;21.20;31.80;;;;;;5046127;28;19927;-45
2022/02/14 04:58:35;;;;;;;;;;;21.20;31.80;;;;;;5041260;28;19994;-50
2022/02/14 05:01:01;;;;;;;;;;;21.20;31.80;;;;;;5054264;28;19936;-48
2022/02/14 05:03:26;;;;;;;;;;;21.20;31.80;;;;;;5048034;28;19915;-51
2022/02/14 05:05:52;;;;;;;;;;;21.20;31.80;;;;;;5044532;28;19905;-52
2022/02/14 05:08:18;;;;;;;;;;;21.20;31.80;;;;;;5039215;28;19948;-53
2022/02/14 05:10:43;;;;;;;;;;;21.20;31.80;;;;;;5041076;28;19958;-54
2022/02/14 05:13:09;;;;;;;;;;;21.20;31.90;;;;;;5044529;28;20298;-54
2022/02/14 05:15:34;;;;;;;;;;;21.20;31.90;;;;;;5051113;28;19917;-53
2022/02/14 05:18:00;;;;;;;;;;;21.20;31.90;;;;;;5047048;28;20003;-53
2022/02/14 05:20:26;;;;;;;;;;;21.20;31.90;;;;;;5039373;28;20332;-50
2022/02/14 05:22:52;;;;;;;;;;;21.20;31.90;;;;;;5049354;28;19916;-48
2022/02/14 05:25:18;;;;;;;;;;;21.20;31.90;;;;;;5040699;28;20323;-51
2022/02/14 05:27:43;;;;;;;;;;;21.20;32.00;;;;;;5043661;28;20315;-46
2022/02/14 05:30:09;;;;;;;;;;;21.20;31.90;;;;;;5051856;28;20221;-45
2022/02/14 05:32:35;;;;;;;;;;;21.10;31.90;;;;;;5041746;28;20308;-47
2022/02/14 05:35:01;;;;;;;;;;;21.20;31.90;;;;;;5043168;28;19950;-46
2022/02/14 05:37:26;;;;;;;;;;;21.20;31.90;;;;;;5043912;28;19916;-47
2022/02/14 05:39:52;;;;;;;;;;;21.20;32.00;;;;;;5043100;28;20275;-47
2022/02/14 05:42:18;;;;;;;;;;;21.20;31.90;;;;;;5043633;28;19905;-45
2022/02/14 05:44:44;;;;;;;;;;;21.20;31.90;;;;;;5048396;28;20012;-50
2022/02/14 05:47:10;;;;;;;;;;;21.20;31.90;;;;;;5046524;28;20359;-46
2022/02/14 05:49:36;;;;;;;;;;;21.20;31.90;;;;;;5047598;28;19905;-49
2022/02/14 05:52:02;;;;;;;;;;;21.20;32.00;;;;;;5045293;28;19913;-45
2022/02/14 05:54:28;;;;;;;;;;;21.20;32.00;;;;;;5050813;28;19955;-49
2022/02/14 05:56:54;;;;;;;;;;;21.10;31.90;;;;;;5048456;28;20621;-48
2022/02/14 05:59:20;;;;;;;;;;;21.20;32.00;;;;;;5052056;28;19931;-50
2022/02/14 06:01:45;;;;;;;;;;;21.20;32.00;;;;;;5045658;28;20295;-49
2022/02/14 06:04:12;;;;;;;;;;;21.20;32.00;;;;;;5043574;28;19904;-50
2022/02/14 06:06:38;;;;;;;;;;;21.10;31.90;;;;;;5046087;28;19959;-49
2022/02/14 06:09:03;;;;;;;;;;;21.10;31.90;;;;;;5045174;28;19905;-48
2022/02/14 06:11:29;;;;;;;;;;;21.10;32.00;;;;;;5048512;28;19928;-51
2022/02/14 06:13:55;;;;;;;;;;;21.10;32.00;;;;;;5048365;28;20007;-49
2022/02/14 06:16:21;;;;;;;;;;;21.10;32.00;;;;;;5038772;28;19916;-47
2022/02/14 06:18:47;;;;;;;;;;;21.10;32.00;;;;;;5053024;28;20212;-51
2022/02/14 06:21:12;;;;;;;;;;;21.10;32.00;;;;;;5043666;28;19916;-51
2022/02/14 06:23:38;;;;;;;;;;;21.10;32.00;;;;;;5049174;28;19905;-45
2022/02/14 06:26:04;;;;;;;;;;;21.10;32.60;;;;;;5039742;28;19905;-50
2022/02/14 06:28:30;;;;;;;;;;;21.10;32.00;;;;;;5048500;28;19908;-45
2022/02/14 06:30:56;;;;;;;;;;;21.10;32.10;;;;;;5047267;28;20229;-50
2022/02/14 06:33:22;;;;;;;;;;;21.10;32.10;;;;;;5046605;28;20354;-49
2022/02/14 06:35:47;;;;;;;;;;;21.10;32.10;;;;;;5038276;28;19912;-46
2022/02/14 06:38:13;;;;;;;;;;;21.10;32.10;;;;;;5047162;28;19993;-46
2022/02/14 06:40:39;;;;;;;;;;;21.10;32.10;;;;;;5045323;28;20255;-45
2022/02/14 06:43:04;;;;;;;;;;;21.10;32.10;;;;;;5050516;28;20026;-48
2022/02/14 06:45:30;;;;;;;;;;;21.10;32.10;;;;;;5051532;28;19905;-47
2022/02/14 06:47:56;;;;;;;;;;;21.10;32.20;;;;;;5047870;28;20331;-48
2022/02/14 06:50:21;;;;;;;;;;;21.10;32.20;;;;;;5046919;28;20243;-50
2022/02/14 06:52:47;;;;;;;;;;;21.00;32.10;;;;;;5041474;28;19931;-49
2022/02/14 06:55:13;;;;;;;;;;;21.10;32.20;;;;;;5053290;28;20266;-49
2022/02/14 06:57:39;;;;;;;;;;;21.10;32.20;;;;;;5046170;28;19908;-46
2022/02/14 07:00:07;;;;;;;;;;;21.10;32.20;;;;;;5039651;28;19974;-46
2022/02/14 07:02:33;;;;;;;;;;;21.10;32.20;;;;;;5043716;28;19915;-50
2022/02/14 07:04:59;;;;;;;;;;;21.10;32.20;;;;;;5037683;28;19905;-49
2022/02/14 07:07:25;;;;;;;;;;;21.00;32.10;;;;;;5049696;28;20007;-51
2022/02/14 07:09:51;;;;;;;;;;;21.10;32.20;;;;;;5039012;28;19995;-48
2022/02/14 07:12:17;;;;;;;;;;;21.00;32.10;;;;;;5046904;28;19904;-51
2022/02/14 07:14:44;;;;;;;;;;;21.10;32.20;;;;;;5048962;28;19952;-49
2022/02/14 07:17:11;;;;;;;;;;;21.00;32.20;;;;;;5042408;28;19971;-47
2022/02/14 07:19:38;;;;;;;;;;;21.00;32.20;;;;;;5048631;28;20228;-50
2022/02/14 07:22:03;;;;;;;;;;;21.00;32.90;;;;;;5040294;28;19904;-47
2022/02/14 07:24:29;;;;;;;;;;;21.00;32.30;;;;;;5041799;28;19972;-55
2022/02/14 07:26:55;;;;;;;;;;;21.00;32.30;;;;;;5037421;28;19909;-47
2022/02/14 07:29:21;;;;;;;;;;;21.00;32.30;;;;;;5050272;28;19915;-49
2022/02/14 07:31:47;;;;;;;;;;;21.00;32.40;;;;;;5027474;28;19974;-50
2022/02/14 07:34:12;;;;;;;;;;;21.00;32.40;;;;;;5048333;28;19936;-48
2022/02/14 07:36:38;;;;;;;;;;;21.00;32.50;;;;;;5050687;28;20239;-47
2022/02/14 07:39:04;;;;;;;;;;;21.00;32.50;;;;;;5055829;28;19982;-45
2022/02/14 07:41:32;;;;;;;;;;;21.00;32.50;;;;;;5041947;28;19908;-51
2022/02/14 07:44:00;;;;;;;;;;;21.00;32.50;;;;;;5027140;28;19994;-49
2022/02/14 07:46:26;;;;;;;;;;;21.00;32.60;;;;;;5048733;28;19941;-45
2022/02/14 07:48:51;;;;;;;;;;;21.00;33.20;;;;;;5019597;28;19905;-59
2022/02/14 07:51:25;;;;;;;;;;;21.00;32.60;;;;;;5046226;28;20382;-54
2022/02/14 07:53:50;;;;;;;;;;;21.00;32.70;;;;;;5040535;28;19916;-49
2022/02/14 07:56:16;;;;;;;;;;;21.00;32.80;;;;;;5039838;28;20216;-48
2022/02/14 07:58:43;;;;;;;;;;;21.00;32.80;;;;;;5029195;28;19916;-50
2022/02/14 08:01:09;;;;;;;;;;;21.00;32.80;;;;;;5026831;28;19913;-51
2022/02/14 08:03:34;;;;;;;;;;;21.00;32.90;;;;;;5047970;28;19908;-47
2022/02/14 08:06:00;;;;;;;;;;;21.00;32.90;;;;;;5028412;28;19917;-48
2022/02/14 08:08:26;;;;;;;;;;;21.00;32.90;;;;;;5046571;28;19904;-51
2022/02/14 08:10:53;;;;;;;;;;;21.00;32.90;;;;;;5049573;28;19913;-50
2022/02/14 08:13:19;;;;;;;;;;;21.00;33.00;;;;;;5044042;28;19905;-47
2022/02/14 08:15:45;;;;;;;;;;;21.00;33.00;;;;;;5051781;28;19923;-50
2022/02/14 08:18:10;;;;;;;;;;;21.00;33.10;;;;;;5053080;28;19905;-45
2022/02/14 08:20:36;;;;;;;;;;;21.00;33.20;;;;;;5044515;28;20001;-49
2022/02/14 08:23:03;;;;;;;;;;;21.00;33.20;;;;;;5042046;28;19912;-46
2022/02/14 08:25:32;;;;;;;;;;;21.10;33.30;;;;;;5047983;28;19904;-50
2022/02/14 08:27:59;;;;;;;;;;;21.20;33.40;;;;;;5052052;28;19905;-52
2022/02/14 08:30:24;;;;;;;;;;;21.20;33.40;;;;;;5042988;28;19935;-51
2022/02/14 08:32:50;;;;;;;;;;;21.30;33.50;;;;;;5048422;28;19912;-52
2022/02/14 08:35:17;;;;;;;;;;;21.40;33.50;;;;;;5047002;28;19904;-50
2022/02/14 08:37:44;;;;;;;;;;;21.40;33.40;;;;;;5046071;28;20263;-49
2022/02/14 08:40:10;;;;;;;;;;;21.50;33.40;;;;;;5048107;28;20399;-46
2022/02/14 08:42:35;;;;;;;;;;;21.60;33.40;;;;;;5041142;28;19959;-46
2022/02/14 08:45:02;;;;;;;;;;;21.70;33.40;;;;;;5053098;28;19916;-45
2022/02/14 08:47:28;;;;;;;;;;;21.80;33.50;;;;;;5036897;28;19905;-46
2022/02/14 08:49:53;;;;;;;;;;;21.90;33.50;;;;;;5045468;28;20201;-48
2022/02/14 08:52:20;;;;;;;;;;;22.00;33.40;;;;;;5053040;28;19936;-47
2022/02/14 08:54:46;;;;;;;;;;;22.10;33.40;;;;;;5041795;28;19906;-46
2022/02/14 08:57:12;;;;;;;;;;;22.10;33.30;;;;;;5042532;28;19911;-50
2022/02/14 08:59:38;;;;;;;;;;;22.20;33.30;;;;;;5050224;28;20284;-47
2022/02/14 09:02:05;;;;;;;;;;;22.30;33.30;;;;;;5050740;28;19915;-47
2022/02/14 09:04:31;;;;;;;;;;;22.30;33.20;;;;;;5046252;28;19988;-50
2022/02/14 09:06:57;;;;;;;;;;;22.40;33.30;;;;;;5055170;28;19923;-49
2022/02/14 09:09:23;;;;;;;;;;;22.50;33.20;;;;;;5047236;28;19905;-45
2022/02/14 09:11:49;;;;;;;;;;;22.50;33.20;;;;;;5055619;28;19924;-48
2022/02/14 09:14:14;;;;;;;;;;;22.60;33.20;;;;;;5043592;28;19911;-48
2022/02/14 09:16:40;;;;;;;;;;;22.60;33.10;;;;;;5044095;28;20231;-50
2022/02/14 09:19:06;;;;;;;;;;;22.70;33.10;;;;;;5046468;28;20015;-47
2022/02/14 09:21:32;;;;;;;;;;;22.70;33.10;;;;;;5047910;28;20205;-48
2022/02/14 09:23:58;;;;;;;;;;;22.80;33.10;;;;;;5044655;28;19928;-47
2022/02/14 09:26:24;;;;;;;;;;;22.90;33.10;;;;;;5046247;28;19904;-44
2022/02/14 09:28:50;;;;;;;;;;;22.90;33.10;;;;;;5050561;28;20015;-48
2022/02/14 09:31:16;;;;;;;;;;;23.00;33.10;;;;;;5043059;28;19912;-50
2022/02/14 09:33:42;;;;;;;;;;;23.00;33.00;;;;;;5048301;28;19915;-49
2022/02/14 09:36:08;;;;;;;;;;;23.10;33.70;;;;;;5047728;28;19939;-52
2022/02/14 09:38:33;;;;;;;;;;;23.10;33.00;;;;;;5045516;28;20339;-50
2022/02/14 09:41:01;;;;;;;;;;;23.10;33.00;;;;;;5040800;28;19970;-53
2022/02/14 09:43:30;;;;;;;;;;;23.20;33.10;;;;;;5039622;28;20347;-58
2022/02/14 09:45:57;;;;;;;;;;;23.30;33.00;;;;;;5040691;28;19917;-51
2022/02/14 09:48:23;;;;;;;;;;;23.20;32.80;;;;;;5031625;28;19905;-49
2022/02/14 09:50:49;;;;;;;;;;;23.20;32.80;;;;;;5042587;28;19912;-47
2022/02/14 09:53:17;;;;;;;;;;;23.20;32.90;;;;;;5037423;28;19905;-55
2022/02/14 09:55:43;;;;;;;;;;;23.20;33.00;;;;;;5048903;28;20319;-46
2022/02/14 09:58:09;;;;;;;;;;;23.20;33.10;;;;;;5056470;28;19992;-48
2022/02/14 10:00:36;;;;;;;;;;;23.20;33.20;;;;;;5044717;28;19979;-52
2022/02/14 10:03:19;;;;;;;;;;;23.20;33.30;;;;;;5047415;28;19951;-49
2022/02/14 10:05:46;;;;;;;;;;;23.20;33.30;;;;;;5056730;28;20022;-52
2022/02/14 10:08:38;;;;;;;;;;;23.30;33.40;;;;;;5050542;28;19962;-47
2022/02/14 10:11:21;;;;;;;;;;;23.40;33.40;;;;;;5052705;28;19966;-55
2022/02/14 10:13:51;;;;;;;;;;;23.40;33.40;;;;;;5038069;28;20007;-47
2022/02/14 10:16:17;;;;;;;;;;;23.50;33.50;;;;;;5037418;28;19913;-44
2022/02/14 10:18:44;;;;;;;;;;;23.50;33.50;;;;;;5038327;28;19916;-50
2022/02/14 10:21:26;;;;;;;;;;;23.50;33.50;;;;;;5041812;28;19909;-49
2022/02/14 10:23:59;;;;;;;;;;;23.60;33.50;;;;;;5051831;28;19905;-50
2022/02/14 10:26:30;;;;;;;;;;;23.60;33.50;;;;;;5036853;28;19980;-49
2022/02/14 10:28:55;;;;;;;;;;;23.60;33.40;;;;;;5043373;28;19920;-50
2022/02/14 10:31:21;;;;;;;;;;;23.60;33.30;;;;;;5038641;28;19912;-47
2022/02/14 10:33:47;;;;;;;;;;;23.60;33.30;;;;;;5036568;28;20391;-46
2022/02/14 10:36:22;;;;;;;;;;;23.60;33.20;;;;;;5042749;28;19966;-50
2022/02/14 10:38:48;;;;;;;;;;;23.60;33.20;;;;;;5052522;28;20304;-44
2022/02/14 10:41:14;;;;;;;;;;;23.60;33.20;;;;;;5039454;28;19916;-45
2022/02/14 10:43:40;;;;;;;;;;;23.60;33.20;;;;;;5038400;28;19927;-47
2022/02/14 10:46:05;;;;;;;;;;;23.60;33.20;;;;;;5036397;28;19912;-44
2022/02/14 10:48:40;;;;;;;;;;;23.60;33.20;;;;;;5035371;28;19904;-44
2022/02/14 10:51:06;;;;;;;;;;;23.60;33.20;;;;;;5038443;28;20266;-46
2022/02/14 10:53:45;;;;;;;;;;;23.60;33.20;;;;;;5039097;28;19905;-48
2022/02/14 10:56:13;;;;;;;;;;;23.50;33.10;;;;;;5039391;28;19916;-48
2022/02/14 10:58:39;;;;;;;;;;;23.50;33.10;;;;;;5046351;28;19904;-46
2022/02/14 11:01:08;;;;;;;;;;;23.50;33.10;;;;;;5038225;28;19923;-45
2022/02/14 11:03:34;;;;;;;;;;;23.50;33.10;;;;;;5041880;28;20269;-44
2022/02/14 11:06:00;;;;;;;;;;;23.50;33.10;;;;;;5052842;28;19909;-44
2022/02/14 11:08:26;;;;;;;;;;;23.40;33.10;;;;;;5075831;28;19904;-46
2022/02/14 11:10:52;;;;;;;;;;;23.40;33.10;;;;;;5059579;28;19962;-45
2022/02/14 11:13:18;;;;;;;;;;;23.40;33.10;;;;;;5056162;28;19915;-46
2022/02/14 11:15:46;;;;;;;;;;;23.40;33.10;;;;;;5036310;28;19916;-45
2022/02/14 11:18:13;;;;;;;;;;;23.40;33.10;;;;;;5042157;28;20292;-43
2022/02/14 11:20:39;;;;;;;;;;;23.40;33.10;;;;;;5048581;28;19908;-48
2022/02/14 11:23:06;;;;;;;;;;;23.30;33.10;;;;;;5046610;28;19927;-49
2022/02/14 11:25:31;;;;;;;;;;;23.30;33.10;;;;;;5040447;28;19915;-50
2022/02/14 11:27:57;;;;;;;;;;;23.30;33.10;;;;;;5043039;28;19904;-51
2022/02/14 11:30:25;;;;;;;;;;;23.30;33.10;;;;;;5040267;28;20255;-46
2022/02/14 11:33:05;;;;;;;;;;;23.30;33.10;;;;;;5035110;28;19912;-46
2022/02/14 11:35:30;;;;;;;;;;;23.30;33.10;;;;;;5043700;28;19908;-50
2022/02/14 11:37:59;;;;;;;;;;;23.30;33.10;;;;;;5041319;28;19916;-49
2022/02/14 11:40:29;;;;;;;;;;;23.30;33.20;;;;;;5036439;28;19905;-44
2022/02/14 11:43:07;;;;;;;;;;;23.30;33.20;;;;;;5035513;28;19908;-46
2022/02/14 11:45:33;;;;;;;;;;;23.30;33.30;;;;;;5038234;28;19924;-48
2022/02/14 11:48:34;;;;;;;;;;;23.30;33.30;;;;;;5041317;28;19916;-46
2022/02/14 11:51:08;;;;;;;;;;;23.40;33.40;;;;;;4976902;28;19983;-47
2022/02/14 11:53:35;;;;;;;;;;;23.40;33.40;;;;;;5027549;28;19913;-51
2022/02/14 11:56:19;;;;;;;;;;;23.40;33.40;;;;;;5039630;28;19914;-47
2022/02/14 11:59:03;;;;;;;;;;;23.40;33.40;;;;;;5039765;28;19916;-47
2022/02/14 12:01:30;;;;;;;;;;;23.50;33.40;;;;;;5009061;28;19913;-45
2022/02/14 12:04:22;;;;;;;;;;;23.40;33.30;;;;;;5007471;28;19912;-45
2022/02/14 12:07:17;;;;;;;;;;;23.40;33.30;;;;;;4999554;28;19917;-45
2022/02/14 12:10:01;;;;;;;;;;;23.40;33.30;;;;;;5000460;28;19905;-48
2022/02/14 12:12:38;;;;;;;;;;;23.40;33.30;;;;;;5008572;28;19952;-47
2022/02/14 12:20:48;;;;;;;;;;;23.40;33.20;;;;;;5010098;28;19905;-46
2022/02/14 12:23:25;;;;;;;;;;;23.40;33.20;;;;;;5011122;28;19906;-45
2022/02/14 12:25:51;;;;;;;;;;;23.40;33.10;;;;;;5008291;28;19949;-45
2022/02/14 12:28:19;;;;;;;;;;;23.40;33.10;;;;;;5007819;28;21653;-44
2022/02/14 12:30:45;;;;;;;;;;;23.40;33.10;;;;;;4991071;28;19936;-43
2022/02/14 12:33:11;;;;;;;;;;;23.40;33.00;;;;;;5009943;28;19905;-43
2022/02/14 12:35:40;;;;;;;;;;;23.40;33.00;;;;;;5011801;28;19905;-45
2022/02/14 12:38:06;;;;;;;;;;;23.40;33.00;;;;;;5010611;28;19909;-43
2022/02/14 12:40:47;;;;;;;;;;;23.40;32.90;;;;;;5013725;28;19916;-45
2022/02/14 12:43:32;;;;;;;;;;;23.40;32.90;;;;;;5012764;28;19905;-50
2022/02/14 12:45:59;;;;;;;;;;;23.40;32.90;;;;;;5008940;28;19967;-42
2022/02/14 12:48:30;;;;;;;;;;;23.40;32.90;;;;;;5008752;28;19905;-47
2022/02/14 12:50:56;;;;;;;;;;;23.40;32.90;;;;;;5012283;28;19917;-48
2022/02/14 12:53:21;;;;;;;;;;;23.40;32.90;;;;;;5007356;28;19983;-44
2022/02/14 12:55:47;;;;;;;;;;;23.40;32.90;;;;;;5013258;28;19945;-46
2022/02/14 12:58:15;;;;;;;;;;;23.40;32.90;;;;;;5016555;28;19914;-45
2022/02/14 13:00:44;;;;;;;;;;;23.40;32.90;;;;;;5035921;28;19913;-47
2022/02/14 13:03:11;;;;;;;;;;;23.40;32.80;;;;;;5041456;28;19927;-44
2022/02/14 13:05:37;;;;;;;;;;;23.40;32.80;;;;;;5048097;28;19905;-46
2022/02/14 13:08:15;;;;;;;;;;;23.40;32.70;;;;;;5021087;28;19912;-48
2022/02/14 13:10:45;;;;;;;;;;;23.40;32.70;;;;;;5043599;28;20450;-48
2022/02/14 13:13:12;;;;;;;;;;;23.40;32.70;;;;;;5043145;28;20311;-51
2022/02/14 13:15:41;;;;;;;;;;;23.40;32.60;;;;;;5039965;28;20290;-47
2022/02/14 13:18:07;;;;;;;;;;;23.40;32.50;;;;;;5041748;28;19986;-42
2022/02/14 13:20:33;;;;;;;;;;;23.30;32.30;;;;;;5041611;28;20336;-46
2022/02/14 13:23:00;;;;;;;;;;;23.30;32.20;;;;;;5044602;28;20034;-48
2022/02/14 13:25:26;;;;;;;;;;;23.30;32.20;;;;;;5042502;28;20213;-45
2022/02/14 13:27:53;;;;;;;;;;;23.30;32.10;;;;;;5045166;28;20307;-45
2022/02/14 13:30:21;;;;;;;;;;;23.20;32.00;;;;;;5053335;28;20232;-44
2022/02/14 13:32:47;;;;;;;;;;;23.20;32.00;;;;;;5047455;28;19905;-45
2022/02/14 13:35:14;;;;;;;;;;;23.10;31.90;;;;;;5044623;28;19905;-44
2022/02/14 13:37:43;;;;;;;;;;;23.10;31.90;;;;;;5042440;28;19917;-47
2022/02/14 13:40:23;;;;;;;;;;;23.10;31.80;;;;;;5040144;28;19915;-45
2022/02/14 13:42:54;;;;;;;;;;;23.00;31.80;;;;;;5052639;28;19905;-44
2022/02/14 13:45:20;;;;;;;;;;;23.00;31.80;;;;;;5050034;28;19920;-44
2022/02/14 13:47:47;;;;;;;;;;;23.00;31.80;;;;;;5039813;28;19909;-43
2022/02/14 13:50:23;;;;;;;;;;;22.90;31.70;;;;;;5044136;28;20232;-48
2022/02/14 13:52:49;;;;;;;;;;;22.90;31.70;;;;;;5038685;28;19904;-46
2022/02/14 13:55:17;;;;;;;;;;;22.80;31.70;;;;;;5039831;28;20047;-44
2022/02/14 13:57:43;;;;;;;;;;;22.80;31.70;;;;;;5040699;28;20340;-46
2022/02/14 14:00:28;;;;;;;;;;;22.80;31.80;;;;;;5050516;28;19924;-46
2022/02/14 14:03:03;;;;;;;;;;;22.90;31.90;;;;;;5040639;28;19987;-50
2022/02/14 14:05:39;;;;;;;;;;;22.80;31.80;;;;;;5045316;28;19917;-52
2022/02/14 14:08:06;;;;;;;;;;;22.90;31.90;;;;;;5038125;28;19916;-50
2022/02/14 14:10:41;;;;;;;;;;;22.90;31.90;;;;;;5043199;28;19956;-48
2022/02/14 14:13:09;;;;;;;;;;;22.90;31.90;;;;;;5049181;28;19963;-46
2022/02/14 14:15:36;;;;;;;;;;;22.90;31.90;;;;;;5045163;28;19915;-47
2022/02/14 14:18:02;;;;;;;;;;;22.90;31.90;;;;;;5041710;28;20340;-43
2022/02/14 14:20:28;;;;;;;;;;;22.90;31.90;;;;;;5046256;28;19916;-46
2022/02/14 14:22:54;;;;;;;;;;;22.90;31.90;;;;;;5034954;28;19905;-47